Terminal Aerodrome Forecast
Issued by NWS Wilmington, NC

Home | Current Version | Previous Version | Text Only | Print | Product List | Glossary On
Versions: 1 2 3 4 5 6 7 8 9 10 11 12 13 14 15 16 17 18 19 20 21 22 23 24 25
315
FTUS42 KILM 250525
TAFMYR
TAF
KMYR 250525Z 2506/2606 22014G23KT P6SM OVC040
     FM250800 23012G20KT P6SM BKN050 PROB30 2517/2520 4SM -TSRA
      BKN050CB
     FM252000 25018G27KT P6SM SCT050 PROB30 2520/2522 4SM -TSRA
      BKN050CB
      AMD LTD TO CLD VIS AND WIND TIL 251000=

USA.gov is the U.S. government's official web portal to all federal, state and local government web resources and services.